VOCB/CJB METAR and TAF weather

Enter ICAO airport designator
Station Type Date Time Source
VOCB METAR 2019/02/21 00:00 UTC NOAA

VOCB 210000Z 07005KT 4000 BR FEW010 22/20 Q1018 NOSIG


Station Type Date Time Source
VOCB Decoded METAR 2019/02/21 00:00 UTC NOAA

Coimbatore / Peelamedu, India (VOCB) 11-02N 077-03E 399M
Feb 20, 2019 - 07:00 PM EST / 2019.02.21 0000 UTC
Wind: from the ENE (070 degrees) at 6 MPH (5 KT):0
Visibility: 2 mile(s):0
Sky conditions: mostly clear
Weather: mist
Temperature: 71 F (22 C)
Dew Point: 68 F (20 C)
Relative Humidity: 88%
Pressure (altimeter): 30.06 in. Hg (1018 hPa)
ob: VOCB 210000Z 07005KT 4000 BR FEW010 22/20 Q1018 NOSIG
cycle: 0

Station Type Date Time Source
VOCB TAF 2019/02/20 18:00 UTC NOAA

TAF VOCB 201700Z 2018/2124 08010KT 5000 HZ FEW015
BECMG 2021/2022 VRB02KT 3000 BR
BECMG 2104/2105 09010KT 6000
BECMG 2115/2116 5000 HZ
BECMG 2121/2122 VRB02KT 3000 BR


Example: see airport list